Winton, California
Current Conditions -  °F | °C
As of 6:55 PM on Friday 24 Oct 2014 (Local Time) from KMER Reporting Station
Clear Clear  
Wind Chill: 73°   Ceiling: Unl
Heat Index: 73°   Visibility: 7mi
Dew Point: 52°   Wind: 8mph
Humidity: 47%   Direction: 240°WSW
Pressure: 29.85"   Gusts: NA
Location:  37.39°N, 120.61°W
Report Text: KMER 250155Z 24007KT 7SM SKC 23/11 A2985
Loading
Personal Weather Stations






























Interactive Weather Map
Tropical Storm Tracking
New forecast layout! Learn more

10-Day Weather Forecast

Advertisements
Track Severe Weather on mobile